Sherburn in Elmet, United Kingdom
Current Conditions -  °F | °C
As of 8:50 PM on Thursday 18 Dec 2014 (Local Time) from EGNM Reporting Station
Light Rain Light Rain  
Wind Chill: 42°   Ceiling: 1200
Heat Index: 48°   Visibility: 4mi
Dew Point: 48°   Wind: 15mph
Humidity: 100%   Direction: 280°W
Pressure: 29.59"   Gusts: NA
Location:  53.8°N, 1.25°W
Report Text: EGNM 182050Z 28013KT 6000 -RA SCT006 BKN012 09/09 Q1002
Loading
Personal Weather Stations






























Interactive Weather Map New forecast layout! Learn more

10-Day Weather Forecast

Advertisements
Track Severe Weather on mobile